sensor_id;sensor_type;location;lat;lon;timestamp;P1;durP1;ratioP1;P2;durP2;ratioP2
65769;SDS011;52512;47.650;8.578;2023-05-14T00:00:25;3.17;;;2.90;;
65769;SDS011;52512;47.650;8.578;2023-05-14T00:02:51;3.03;;;2.83;;
65769;SDS011;52512;47.650;8.578;2023-05-14T00:05:16;3.30;;;3.00;;
65769;SDS011;52512;47.650;8.578;2023-05-14T00:07:42;2.90;;;2.70;;
65769;SDS011;52512;47.650;8.578;2023-05-14T00:10:08;3.03;;;2.83;;
65769;SDS011;52512;47.650;8.578;2023-05-14T00:12:34;3.28;;;2.90;;
65769;SDS011;52512;47.650;8.578;2023-05-14T00:14:59;3.07;;;2.77;;
65769;SDS011;52512;47.650;8.578;2023-05-14T00:17:25;2.73;;;2.40;;
65769;SDS011;52512;47.650;8.578;2023-05-14T00:19:51;7.00;;;3.50;;
65769;SDS011;52512;47.650;8.578;2023-05-14T00:22:16;3.17;;;2.53;;
65769;SDS011;52512;47.650;8.578;2023-05-14T00:24:42;2.97;;;2.60;;
65769;SDS011;52512;47.650;8.578;2023-05-14T00:27:08;2.47;;;2.30;;
65769;SDS011;52512;47.650;8.578;2023-05-14T00:29:34;3.20;;;2.83;;
65769;SDS011;52512;47.650;8.578;2023-05-14T00:31:59;3.20;;;2.90;;
65769;SDS011;52512;47.650;8.578;2023-05-14T00:34:25;4.90;;;2.90;;
65769;SDS011;52512;47.650;8.578;2023-05-14T00:36:50;3.20;;;2.73;;
65769;SDS011;52512;47.650;8.578;2023-05-14T00:39:16;4.20;;;3.43;;
65769;SDS011;52512;47.650;8.578;2023-05-14T00:41:42;4.37;;;3.13;;
65769;SDS011;52512;47.650;8.578;2023-05-14T00:44:07;3.37;;;3.07;;
65769;SDS011;52512;47.650;8.578;2023-05-14T00:46:33;3.33;;;3.03;;
65769;SDS011;52512;47.650;8.578;2023-05-14T00:48:59;7.90;;;2.90;;
65769;SDS011;52512;47.650;8.578;2023-05-14T00:51:25;3.97;;;2.50;;
65769;SDS011;52512;47.650;8.578;2023-05-14T00:53:51;3.07;;;2.70;;
65769;SDS011;52512;47.650;8.578;2023-05-14T00:56:17;4.03;;;3.60;;
65769;SDS011;52512;47.650;8.578;2023-05-14T00:58:43;2.88;;;2.67;;
65769;SDS011;52512;47.650;8.578;2023-05-14T01:01:10;3.17;;;2.87;;
65769;SDS011;52512;47.650;8.578;2023-05-14T01:03:39;3.40;;;2.95;;
65769;SDS011;52512;47.650;8.578;2023-05-14T01:06:20;4.22;;;3.20;;
65769;SDS011;52512;47.650;8.578;2023-05-14T01:11:52;3.88;;;2.80;;
65769;SDS011;52512;47.650;8.578;2023-05-14T01:17:03;4.35;;;2.58;;
65769;SDS011;52512;47.650;8.578;2023-05-14T01:19:42;4.22;;;3.15;;
65769;SDS011;52512;47.650;8.578;2023-05-14T01:22:09;3.25;;;2.95;;
65769;SDS011;52512;47.650;8.578;2023-05-14T01:24:35;3.20;;;2.90;;
65769;SDS011;52512;47.650;8.578;2023-05-14T01:29:40;3.00;;;2.80;;
65769;SDS011;52512;47.650;8.578;2023-05-14T01:32:09;4.47;;;3.20;;
65769;SDS011;52512;47.650;8.578;2023-05-14T01:34:37;4.35;;;3.60;;
65769;SDS011;52512;47.650;8.578;2023-05-14T01:37:04;3.42;;;3.05;;
65769;SDS011;52512;47.650;8.578;2023-05-14T01:39:33;3.70;;;3.25;;
65769;SDS011;52512;47.650;8.578;2023-05-14T01:42:01;11.32;;;2.50;;
65769;SDS011;52512;47.650;8.578;2023-05-14T01:44:28;3.75;;;3.38;;
65769;SDS011;52512;47.650;8.578;2023-05-14T01:46:54;5.65;;;3.75;;
65769;SDS011;52512;47.650;8.578;2023-05-14T01:49:20;4.03;;;3.07;;
65769;SDS011;52512;47.650;8.578;2023-05-14T01:51:46;10.00;;;3.50;;
65769;SDS011;52512;47.650;8.578;2023-05-14T01:54:12;2.80;;;2.60;;
65769;SDS011;52512;47.650;8.578;2023-05-14T01:56:37;3.40;;;3.20;;
65769;SDS011;52512;47.650;8.578;2023-05-14T01:59:03;10.83;;;3.73;;
65769;SDS011;52512;47.650;8.578;2023-05-14T02:01:29;7.40;;;4.00;;
65769;SDS011;52512;47.650;8.578;2023-05-14T02:03:54;7.63;;;3.27;;
65769;SDS011;52512;47.650;8.578;2023-05-14T02:06:21;3.90;;;2.90;;
65769;SDS011;52512;47.650;8.578;2023-05-14T02:08:46;3.90;;;3.47;;
65769;SDS011;52512;47.650;8.578;2023-05-14T02:11:12;4.77;;;2.93;;
65769;SDS011;52512;47.650;8.578;2023-05-14T02:13:38;3.30;;;3.00;;
65769;SDS011;52512;47.650;8.578;2023-05-14T02:16:03;3.80;;;3.50;;
65769;SDS011;52512;47.650;8.578;2023-05-14T02:18:30;4.65;;;3.22;;
65769;SDS011;52512;47.650;8.578;2023-05-14T02:20:55;4.30;;;3.13;;
65769;SDS011;52512;47.650;8.578;2023-05-14T02:23:21;3.63;;;3.00;;
65769;SDS011;52512;47.650;8.578;2023-05-14T02:25:47;5.50;;;3.40;;
65769;SDS011;52512;47.650;8.578;2023-05-14T02:28:13;3.27;;;3.00;;
65769;SDS011;52512;47.650;8.578;2023-05-14T02:30:38;4.50;;;2.97;;
65769;SDS011;52512;47.650;8.578;2023-05-14T02:33:04;3.97;;;2.80;;
65769;SDS011;52512;47.650;8.578;2023-05-14T02:35:29;4.30;;;3.27;;
65769;SDS011;52512;47.650;8.578;2023-05-14T02:37:55;3.67;;;3.23;;
65769;SDS011;52512;47.650;8.578;2023-05-14T02:40:21;3.60;;;3.30;;
65769;SDS011;52512;47.650;8.578;2023-05-14T02:42:46;2.77;;;2.57;;
65769;SDS011;52512;47.650;8.578;2023-05-14T02:45:12;5.00;;;3.40;;
65769;SDS011;52512;47.650;8.578;2023-05-14T02:47:38;6.00;;;3.80;;
65769;SDS011;52512;47.650;8.578;2023-05-14T02:50:03;4.30;;;3.50;;
65769;SDS011;52512;47.650;8.578;2023-05-14T02:52:30;4.15;;;3.03;;
65769;SDS011;52512;47.650;8.578;2023-05-14T02:54:56;6.40;;;4.03;;
65769;SDS011;52512;47.650;8.578;2023-05-14T02:57:21;4.67;;;4.17;;
65769;SDS011;52512;47.650;8.578;2023-05-14T02:59:47;7.30;;;3.23;;
65769;SDS011;52512;47.650;8.578;2023-05-14T03:02:13;4.90;;;2.97;;
65769;SDS011;52512;47.650;8.578;2023-05-14T03:04:38;4.93;;;3.97;;
65769;SDS011;52512;47.650;8.578;2023-05-14T03:07:04;3.90;;;3.60;;
65769;SDS011;52512;47.650;8.578;2023-05-14T03:09:30;8.63;;;4.90;;
65769;SDS011;52512;47.650;8.578;2023-05-14T03:11:55;5.43;;;3.53;;
65769;SDS011;52512;47.650;8.578;2023-05-14T03:14:21;4.80;;;4.27;;
65769;SDS011;52512;47.650;8.578;2023-05-14T03:16:46;3.40;;;3.10;;
65769;SDS011;52512;47.650;8.578;2023-05-14T03:19:12;14.50;;;5.00;;
65769;SDS011;52512;47.650;8.578;2023-05-14T03:21:38;9.33;;;4.30;;
65769;SDS011;52512;47.650;8.578;2023-05-14T03:24:03;4.30;;;4.00;;
65769;SDS011;52512;47.650;8.578;2023-05-14T03:26:29;8.13;;;4.33;;
65769;SDS011;52512;47.650;8.578;2023-05-14T03:28:55;4.10;;;3.60;;
65769;SDS011;52512;47.650;8.578;2023-05-14T03:31:20;4.00;;;3.23;;
65769;SDS011;52512;47.650;8.578;2023-05-14T03:33:46;4.27;;;3.60;;
65769;SDS011;52512;47.650;8.578;2023-05-14T03:36:12;4.00;;;3.60;;
65769;SDS011;52512;47.650;8.578;2023-05-14T03:38:38;3.63;;;3.03;;
65769;SDS011;52512;47.650;8.578;2023-05-14T03:41:03;4.37;;;3.70;;
65769;SDS011;52512;47.650;8.578;2023-05-14T03:43:29;3.70;;;3.30;;
65769;SDS011;52512;47.650;8.578;2023-05-14T03:45:55;5.00;;;4.50;;
65769;SDS011;52512;47.650;8.578;2023-05-14T03:48:20;4.63;;;4.00;;
65769;SDS011;52512;47.650;8.578;2023-05-14T03:50:46;5.37;;;3.07;;
65769;SDS011;52512;47.650;8.578;2023-05-14T03:53:11;3.17;;;2.87;;
65769;SDS011;52512;47.650;8.578;2023-05-14T03:55:37;5.20;;;3.93;;
65769;SDS011;52512;47.650;8.578;2023-05-14T03:58:03;5.23;;;4.30;;
65769;SDS011;52512;47.650;8.578;2023-05-14T04:00:34;6.22;;;4.43;;
65769;SDS011;52512;47.650;8.578;2023-05-14T04:03:00;3.83;;;3.23;;
65769;SDS011;52512;47.650;8.578;2023-05-14T04:05:26;4.70;;;3.80;;
65769;SDS011;52512;47.650;8.578;2023-05-14T04:07:51;3.63;;;3.33;;
65769;SDS011;52512;47.650;8.578;2023-05-14T04:10:17;9.20;;;4.47;;
65769;SDS011;52512;47.650;8.578;2023-05-14T04:12:42;3.60;;;3.13;;
65769;SDS011;52512;47.650;8.578;2023-05-14T04:15:08;4.30;;;3.93;;
65769;SDS011;52512;47.650;8.578;2023-05-14T04:17:34;4.35;;;3.67;;
65769;SDS011;52512;47.650;8.578;2023-05-14T04:20:00;4.27;;;3.33;;
65769;SDS011;52512;47.650;8.578;2023-05-14T04:22:26;4.90;;;4.40;;
65769;SDS011;52512;47.650;8.578;2023-05-14T04:24:51;5.30;;;3.80;;
65769;SDS011;52512;47.650;8.578;2023-05-14T04:27:20;7.07;;;3.90;;
65769;SDS011;52512;47.650;8.578;2023-05-14T04:29:46;3.97;;;3.55;;
65769;SDS011;52512;47.650;8.578;2023-05-14T04:32:13;5.63;;;4.07;;
65769;SDS011;52512;47.650;8.578;2023-05-14T04:34:39;11.00;;;4.17;;
65769;SDS011;52512;47.650;8.578;2023-05-14T04:37:05;15.00;;;5.95;;
65769;SDS011;52512;47.650;8.578;2023-05-14T04:39:31;10.40;;;5.23;;
65769;SDS011;52512;47.650;8.578;2023-05-14T04:41:56;5.33;;;4.10;;
65769;SDS011;52512;47.650;8.578;2023-05-14T04:44:22;6.67;;;5.00;;
65769;SDS011;52512;47.650;8.578;2023-05-14T04:46:48;4.43;;;3.73;;
65769;SDS011;52512;47.650;8.578;2023-05-14T04:49:14;12.40;;;5.18;;
65769;SDS011;52512;47.650;8.578;2023-05-14T04:51:42;4.60;;;4.10;;
65769;SDS011;52512;47.650;8.578;2023-05-14T04:54:26;5.63;;;4.30;;
65769;SDS011;52512;47.650;8.578;2023-05-14T04:57:07;6.47;;;4.40;;
65769;SDS011;52512;47.650;8.578;2023-05-14T05:03:17;6.57;;;4.57;;
65769;SDS011;52512;47.650;8.578;2023-05-14T05:05:55;5.43;;;3.60;;
65769;SDS011;52512;47.650;8.578;2023-05-14T05:08:21;4.50;;;4.03;;
65769;SDS011;52512;47.650;8.578;2023-05-14T05:10:47;6.77;;;4.33;;
65769;SDS011;52512;47.650;8.578;2023-05-14T05:13:13;6.70;;;4.57;;
65769;SDS011;52512;47.650;8.578;2023-05-14T05:15:40;4.28;;;3.78;;
65769;SDS011;52512;47.650;8.578;2023-05-14T05:18:08;5.65;;;4.30;;
65769;SDS011;52512;47.650;8.578;2023-05-14T05:20:36;11.45;;;6.60;;
65769;SDS011;52512;47.650;8.578;2023-05-14T05:23:05;18.08;;;7.38;;
65769;SDS011;52512;47.650;8.578;2023-05-14T05:25:31;8.80;;;4.97;;
65769;SDS011;52512;47.650;8.578;2023-05-14T05:27:56;7.50;;;4.30;;
65769;SDS011;52512;47.650;8.578;2023-05-14T05:30:22;6.77;;;4.60;;
65769;SDS011;52512;47.650;8.578;2023-05-14T05:32:50;9.45;;;5.28;;
65769;SDS011;52512;47.650;8.578;2023-05-14T05:35:16;5.70;;;4.07;;
65769;SDS011;52512;47.650;8.578;2023-05-14T05:37:42;6.80;;;4.33;;
65769;SDS011;52512;47.650;8.578;2023-05-14T05:40:09;5.38;;;4.00;;
65769;SDS011;52512;47.650;8.578;2023-05-14T05:42:35;10.13;;;4.90;;
65769;SDS011;52512;47.650;8.578;2023-05-14T05:45:00;5.10;;;4.33;;
65769;SDS011;52512;47.650;8.578;2023-05-14T05:47:26;7.77;;;4.97;;
65769;SDS011;52512;47.650;8.578;2023-05-14T05:49:52;6.83;;;4.53;;
65769;SDS011;52512;47.650;8.578;2023-05-14T05:52:20;7.28;;;4.43;;
65769;SDS011;52512;47.650;8.578;2023-05-14T05:54:46;21.80;;;5.03;;
65769;SDS011;52512;47.650;8.578;2023-05-14T05:57:12;5.47;;;3.97;;
65769;SDS011;52512;47.650;8.578;2023-05-14T05:59:38;6.37;;;4.77;;
65769;SDS011;52512;47.650;8.578;2023-05-14T06:02:03;7.07;;;4.87;;
65769;SDS011;52512;47.650;8.578;2023-05-14T06:04:31;7.00;;;4.97;;
65769;SDS011;52512;47.650;8.578;2023-05-14T06:06:57;5.13;;;4.13;;
65769;SDS011;52512;47.650;8.578;2023-05-14T06:09:23;8.07;;;4.73;;
65769;SDS011;52512;47.650;8.578;2023-05-14T06:11:48;6.00;;;4.13;;
65769;SDS011;52512;47.650;8.578;2023-05-14T06:14:14;7.17;;;5.10;;
65769;SDS011;52512;47.650;8.578;2023-05-14T06:16:41;7.93;;;5.27;;
65769;SDS011;52512;47.650;8.578;2023-05-14T06:19:07;6.47;;;4.13;;
65769;SDS011;52512;47.650;8.578;2023-05-14T06:21:32;11.77;;;4.40;;
65769;SDS011;52512;47.650;8.578;2023-05-14T06:23:58;6.63;;;5.20;;
65769;SDS011;52512;47.650;8.578;2023-05-14T06:26:24;9.27;;;5.60;;
65769;SDS011;52512;47.650;8.578;2023-05-14T06:28:53;6.80;;;4.85;;
65769;SDS011;52512;47.650;8.578;2023-05-14T06:31:19;6.43;;;4.90;;
65769;SDS011;52512;47.650;8.578;2023-05-14T06:33:48;7.63;;;4.97;;
65769;SDS011;52512;47.650;8.578;2023-05-14T06:36:14;6.70;;;4.50;;
65769;SDS011;52512;47.650;8.578;2023-05-14T06:38:39;9.60;;;5.63;;
65769;SDS011;52512;47.650;8.578;2023-05-14T06:41:05;4.93;;;4.50;;
65769;SDS011;52512;47.650;8.578;2023-05-14T06:43:31;5.70;;;4.10;;
65769;SDS011;52512;47.650;8.578;2023-05-14T06:45:56;4.23;;;3.90;;
65769;SDS011;52512;47.650;8.578;2023-05-14T06:48:22;12.43;;;5.23;;
65769;SDS011;52512;47.650;8.578;2023-05-14T06:50:48;8.40;;;5.57;;
65769;SDS011;52512;47.650;8.578;2023-05-14T06:53:14;6.85;;;5.13;;
65769;SDS011;52512;47.650;8.578;2023-05-14T06:55:40;5.65;;;4.75;;
65769;SDS011;52512;47.650;8.578;2023-05-14T06:58:06;6.73;;;5.33;;
65769;SDS011;52512;47.650;8.578;2023-05-14T07:00:32;7.38;;;5.60;;
65769;SDS011;52512;47.650;8.578;2023-05-14T07:02:58;7.70;;;5.87;;
65769;SDS011;52512;47.650;8.578;2023-05-14T07:05:24;11.07;;;6.40;;
65769;SDS011;52512;47.650;8.578;2023-05-14T07:07:50;10.40;;;5.17;;
65769;SDS011;52512;47.650;8.578;2023-05-14T07:10:16;8.37;;;5.10;;
65769;SDS011;52512;47.650;8.578;2023-05-14T07:12:41;7.17;;;5.67;;
65769;SDS011;52512;47.650;8.578;2023-05-14T07:15:08;10.82;;;6.68;;
65769;SDS011;52512;47.650;8.578;2023-05-14T07:17:34;17.40;;;10.00;;
65769;SDS011;52512;47.650;8.578;2023-05-14T07:19:59;13.67;;;6.87;;
65769;SDS011;52512;47.650;8.578;2023-05-14T07:22:26;11.13;;;6.60;;
65769;SDS011;52512;47.650;8.578;2023-05-14T07:24:52;6.80;;;5.35;;
65769;SDS011;52512;47.650;8.578;2023-05-14T07:27:17;8.30;;;6.50;;
65769;SDS011;52512;47.650;8.578;2023-05-14T07:29:43;9.53;;;5.70;;
65769;SDS011;52512;47.650;8.578;2023-05-14T07:32:09;7.13;;;5.63;;
65769;SDS011;52512;47.650;8.578;2023-05-14T07:34:34;9.33;;;6.83;;
65769;SDS011;52512;47.650;8.578;2023-05-14T07:37:00;7.80;;;5.50;;
65769;SDS011;52512;47.650;8.578;2023-05-14T07:39:26;10.45;;;6.53;;
65769;SDS011;52512;47.650;8.578;2023-05-14T07:41:52;10.33;;;7.03;;
65769;SDS011;52512;47.650;8.578;2023-05-14T07:44:21;7.90;;;5.88;;
65769;SDS011;52512;47.650;8.578;2023-05-14T07:46:47;8.52;;;6.10;;
65769;SDS011;52512;47.650;8.578;2023-05-14T07:49:13;8.63;;;5.60;;
65769;SDS011;52512;47.650;8.578;2023-05-14T07:51:38;10.67;;;5.40;;
65769;SDS011;52512;47.650;8.578;2023-05-14T07:54:04;8.80;;;5.87;;
65769;SDS011;52512;47.650;8.578;2023-05-14T07:56:30;7.13;;;6.20;;
65769;SDS011;52512;47.650;8.578;2023-05-14T07:58:56;9.40;;;6.30;;
65769;SDS011;52512;47.650;8.578;2023-05-14T08:01:21;9.40;;;6.87;;
65769;SDS011;52512;47.650;8.578;2023-05-14T08:03:47;12.63;;;6.37;;
65769;SDS011;52512;47.650;8.578;2023-05-14T08:06:13;10.80;;;6.87;;
65769;SDS011;52512;47.650;8.578;2023-05-14T08:08:39;10.30;;;6.70;;
65769;SDS011;52512;47.650;8.578;2023-05-14T08:11:05;9.03;;;5.60;;
65769;SDS011;52512;47.650;8.578;2023-05-14T08:13:30;8.43;;;6.37;;
65769;SDS011;52512;47.650;8.578;2023-05-14T08:15:56;11.33;;;6.50;;
65769;SDS011;52512;47.650;8.578;2023-05-14T08:18:22;6.63;;;5.37;;
65769;SDS011;52512;47.650;8.578;2023-05-14T08:20:48;10.70;;;5.20;;
65769;SDS011;52512;47.650;8.578;2023-05-14T08:23:14;8.00;;;4.90;;
65769;SDS011;52512;47.650;8.578;2023-05-14T08:25:39;9.80;;;5.97;;
65769;SDS011;52512;47.650;8.578;2023-05-14T08:28:06;7.40;;;4.83;;
65769;SDS011;52512;47.650;8.578;2023-05-14T08:30:32;10.38;;;5.75;;
65769;SDS011;52512;47.650;8.578;2023-05-14T08:32:58;5.72;;;5.10;;
65769;SDS011;52512;47.650;8.578;2023-05-14T08:35:23;8.13;;;5.40;;
65769;SDS011;52512;47.650;8.578;2023-05-14T08:37:49;5.57;;;4.47;;
65769;SDS011;52512;47.650;8.578;2023-05-14T08:40:16;7.60;;;5.28;;
65769;SDS011;52512;47.650;8.578;2023-05-14T08:42:42;10.00;;;5.33;;
65769;SDS011;52512;47.650;8.578;2023-05-14T08:47:35;7.20;;;5.30;;
65769;SDS011;52512;47.650;8.578;2023-05-14T08:50:02;5.85;;;4.15;;
65769;SDS011;52512;47.650;8.578;2023-05-14T08:52:29;8.02;;;5.38;;
65769;SDS011;52512;47.650;8.578;2023-05-14T08:54:55;9.83;;;5.60;;
65769;SDS011;52512;47.650;8.578;2023-05-14T08:57:24;6.75;;;5.55;;
65769;SDS011;52512;47.650;8.578;2023-05-14T08:59:51;5.30;;;4.00;;
65769;SDS011;52512;47.650;8.578;2023-05-14T09:02:17;6.32;;;4.30;;
65769;SDS011;52512;47.650;8.578;2023-05-14T09:04:47;8.15;;;5.65;;
65769;SDS011;52512;47.650;8.578;2023-05-14T09:07:22;4.57;;;4.00;;
65769;SDS011;52512;47.650;8.578;2023-05-14T09:09:48;13.03;;;6.23;;
65769;SDS011;52512;47.650;8.578;2023-05-14T09:12:15;7.60;;;4.78;;
65769;SDS011;52512;47.650;8.578;2023-05-14T09:14:42;7.63;;;5.32;;
65769;SDS011;52512;47.650;8.578;2023-05-14T09:17:08;9.40;;;6.00;;
65769;SDS011;52512;47.650;8.578;2023-05-14T09:19:38;9.88;;;5.05;;
65769;SDS011;52512;47.650;8.578;2023-05-14T09:22:11;9.35;;;5.40;;
65769;SDS011;52512;47.650;8.578;2023-05-14T09:24:37;7.03;;;4.47;;
65769;SDS011;52512;47.650;8.578;2023-05-14T09:27:07;8.32;;;5.55;;
65769;SDS011;52512;47.650;8.578;2023-05-14T09:29:33;6.15;;;4.90;;
65769;SDS011;52512;47.650;8.578;2023-05-14T09:31:59;7.60;;;5.50;;
65769;SDS011;52512;47.650;8.578;2023-05-14T09:34:30;9.75;;;5.55;;
65769;SDS011;52512;47.650;8.578;2023-05-14T09:36:59;7.10;;;5.37;;
65769;SDS011;52512;47.650;8.578;2023-05-14T09:39:26;5.80;;;5.00;;
65769;SDS011;52512;47.650;8.578;2023-05-14T09:41:53;6.00;;;4.95;;
65769;SDS011;52512;47.650;8.578;2023-05-14T09:44:19;7.85;;;4.68;;
65769;SDS011;52512;47.650;8.578;2023-05-14T09:46:46;8.45;;;5.85;;
65769;SDS011;52512;47.650;8.578;2023-05-14T09:49:12;8.77;;;5.33;;
65769;SDS011;52512;47.650;8.578;2023-05-14T09:51:38;12.90;;;5.70;;
65769;SDS011;52512;47.650;8.578;2023-05-14T09:54:04;9.40;;;6.50;;
65769;SDS011;52512;47.650;8.578;2023-05-14T09:56:34;7.47;;;5.43;;
65769;SDS011;52512;47.650;8.578;2023-05-14T09:59:00;6.13;;;5.30;;
65769;SDS011;52512;47.650;8.578;2023-05-14T10:01:30;7.85;;;5.00;;
65769;SDS011;52512;47.650;8.578;2023-05-14T10:03:59;9.33;;;5.63;;
65769;SDS011;52512;47.650;8.578;2023-05-14T10:06:29;6.82;;;4.63;;
65769;SDS011;52512;47.650;8.578;2023-05-14T10:09:02;8.13;;;4.43;;
65769;SDS011;52512;47.650;8.578;2023-05-14T10:11:32;8.40;;;5.10;;
65769;SDS011;52512;47.650;8.578;2023-05-14T10:16:50;6.60;;;4.60;;
65769;SDS011;52512;47.650;8.578;2023-05-14T10:19:19;6.55;;;4.95;;
65769;SDS011;52512;47.650;8.578;2023-05-14T10:21:47;4.13;;;3.43;;
65769;SDS011;52512;47.650;8.578;2023-05-14T10:24:28;10.97;;;5.17;;
65769;SDS011;52512;47.650;8.578;2023-05-14T10:30:04;6.90;;;4.60;;
65769;SDS011;52512;47.650;8.578;2023-05-14T10:35:31;11.37;;;5.47;;
65769;SDS011;52512;47.650;8.578;2023-05-14T10:38:34;11.88;;;4.90;;
65769;SDS011;52512;47.650;8.578;2023-05-14T10:41:12;10.03;;;5.33;;
65769;SDS011;52512;47.650;8.578;2023-05-14T10:43:42;9.40;;;5.50;;
65769;SDS011;52512;47.650;8.578;2023-05-14T10:46:11;8.20;;;5.53;;
65769;SDS011;52512;47.650;8.578;2023-05-14T10:48:40;10.40;;;6.37;;
65769;SDS011;52512;47.650;8.578;2023-05-14T10:51:07;11.37;;;6.50;;
65769;SDS011;52512;47.650;8.578;2023-05-14T10:53:36;5.97;;;5.30;;
65769;SDS011;52512;47.650;8.578;2023-05-14T10:56:11;10.00;;;5.30;;
65769;SDS011;52512;47.650;8.578;2023-05-14T10:58:39;12.47;;;6.47;;
65769;SDS011;52512;47.650;8.578;2023-05-14T11:01:11;10.40;;;6.70;;
65769;SDS011;52512;47.650;8.578;2023-05-14T11:03:45;16.70;;;10.30;;
65769;SDS011;52512;47.650;8.578;2023-05-14T11:06:12;28.57;;;11.67;;
65769;SDS011;52512;47.650;8.578;2023-05-14T11:08:39;19.20;;;11.03;;
65769;SDS011;52512;47.650;8.578;2023-05-14T11:11:05;47.63;;;19.43;;
65769;SDS011;52512;47.650;8.578;2023-05-14T11:13:33;20.40;;;11.87;;
65769;SDS011;52512;47.650;8.578;2023-05-14T11:15:59;11.93;;;7.77;;
65769;SDS011;52512;47.650;8.578;2023-05-14T11:18:26;13.97;;;7.63;;
65769;SDS011;52512;47.650;8.578;2023-05-14T11:21:01;18.00;;;7.00;;
65769;SDS011;52512;47.650;8.578;2023-05-14T11:23:27;11.80;;;6.97;;
65769;SDS011;52512;47.650;8.578;2023-05-14T11:25:53;14.73;;;6.80;;
65769;SDS011;52512;47.650;8.578;2023-05-14T11:28:23;12.73;;;7.30;;
65769;SDS011;52512;47.650;8.578;2023-05-14T11:30:51;6.63;;;4.60;;
65769;SDS011;52512;47.650;8.578;2023-05-14T11:33:17;8.33;;;4.33;;
65769;SDS011;52512;47.650;8.578;2023-05-14T11:35:44;5.27;;;3.50;;
65769;SDS011;52512;47.650;8.578;2023-05-14T11:38:18;6.40;;;3.27;;
65769;SDS011;52512;47.650;8.578;2023-05-14T11:40:54;6.30;;;3.60;;
65769;SDS011;52512;47.650;8.578;2023-05-14T11:43:21;3.73;;;3.43;;
65769;SDS011;52512;47.650;8.578;2023-05-14T11:45:50;4.00;;;3.60;;
65769;SDS011;52512;47.650;8.578;2023-05-14T11:48:17;4.20;;;3.37;;
65769;SDS011;52512;47.650;8.578;2023-05-14T11:50:44;5.57;;;2.83;;
65769;SDS011;52512;47.650;8.578;2023-05-14T11:53:15;3.90;;;3.30;;
65769;SDS011;52512;47.650;8.578;2023-05-14T11:55:44;4.80;;;3.00;;
65769;SDS011;52512;47.650;8.578;2023-05-14T11:58:11;5.80;;;2.97;;
65769;SDS011;52512;47.650;8.578;2023-05-14T12:00:37;3.33;;;3.03;;
65769;SDS011;52512;47.650;8.578;2023-05-14T12:03:04;6.43;;;3.10;;
65769;SDS011;52512;47.650;8.578;2023-05-14T12:05:30;2.60;;;2.40;;
65769;SDS011;52512;47.650;8.578;2023-05-14T12:07:55;4.73;;;3.50;;
65769;SDS011;52512;47.650;8.578;2023-05-14T12:10:21;3.57;;;3.00;;
65769;SDS011;52512;47.650;8.578;2023-05-14T12:12:47;2.80;;;2.50;;
65769;SDS011;52512;47.650;8.578;2023-05-14T12:15:13;3.60;;;2.97;;
65769;SDS011;52512;47.650;8.578;2023-05-14T12:17:41;6.40;;;2.90;;
65769;SDS011;52512;47.650;8.578;2023-05-14T12:20:08;4.43;;;2.93;;
65769;SDS011;52512;47.650;8.578;2023-05-14T12:22:35;3.10;;;2.80;;
65769;SDS011;52512;47.650;8.578;2023-05-14T12:25:01;3.07;;;2.77;;
65769;SDS011;52512;47.650;8.578;2023-05-14T12:27:27;19.23;;;3.30;;
65769;SDS011;52512;47.650;8.578;2023-05-14T12:30:00;3.10;;;2.90;;
65769;SDS011;52512;47.650;8.578;2023-05-14T12:32:27;3.73;;;3.17;;
65769;SDS011;52512;47.650;8.578;2023-05-14T12:34:56;3.87;;;2.50;;
65769;SDS011;52512;47.650;8.578;2023-05-14T12:37:22;3.43;;;3.13;;
65769;SDS011;52512;47.650;8.578;2023-05-14T12:39:50;3.30;;;2.97;;
65769;SDS011;52512;47.650;8.578;2023-05-14T12:42:29;4.03;;;2.97;;
65769;SDS011;52512;47.650;8.578;2023-05-14T13:27:32;4.97;;;3.83;;
65769;SDS011;52512;47.650;8.578;2023-05-14T13:30:01;6.03;;;3.63;;
65769;SDS011;52512;47.650;8.578;2023-05-14T13:32:30;4.10;;;3.60;;
65769;SDS011;52512;47.650;8.578;2023-05-14T13:34:56;4.57;;;3.80;;
65769;SDS011;52512;47.650;8.578;2023-05-14T13:41:01;6.10;;;3.70;;
65769;SDS011;52512;47.650;8.578;2023-05-14T13:43:28;7.97;;;3.97;;
65769;SDS011;52512;47.650;8.578;2023-05-14T13:45:55;8.47;;;3.13;;
65769;SDS011;52512;47.650;8.578;2023-05-14T13:48:22;12.73;;;3.60;;
65769;SDS011;52512;47.650;8.578;2023-05-14T13:50:48;18.57;;;3.93;;
65769;SDS011;52512;47.650;8.578;2023-05-14T13:53:15;6.00;;;3.00;;
65769;SDS011;52512;47.650;8.578;2023-05-14T13:55:44;9.93;;;3.27;;
65769;SDS011;52512;47.650;8.578;2023-05-14T13:58:09;7.90;;;4.47;;
65769;SDS011;52512;47.650;8.578;2023-05-14T14:00:35;8.33;;;4.17;;
65769;SDS011;52512;47.650;8.578;2023-05-14T14:03:01;4.67;;;3.37;;
65769;SDS011;52512;47.650;8.578;2023-05-14T14:05:27;6.33;;;3.30;;
65769;SDS011;52512;47.650;8.578;2023-05-14T14:07:53;2.80;;;2.53;;
65769;SDS011;52512;47.650;8.578;2023-05-14T14:10:20;4.70;;;3.03;;
65769;SDS011;52512;47.650;8.578;2023-05-14T14:12:47;3.90;;;3.10;;
65769;SDS011;52512;47.650;8.578;2023-05-14T14:15:13;6.43;;;4.30;;
65769;SDS011;52512;47.650;8.578;2023-05-14T14:17:39;8.60;;;3.47;;
65769;SDS011;52512;47.650;8.578;2023-05-14T14:20:07;5.80;;;3.20;;
65769;SDS011;52512;47.650;8.578;2023-05-14T14:22:33;10.73;;;4.33;;
65769;SDS011;52512;47.650;8.578;2023-05-14T14:24:59;4.50;;;3.40;;
65769;SDS011;52512;47.650;8.578;2023-05-14T14:27:25;10.00;;;3.07;;
65769;SDS011;52512;47.650;8.578;2023-05-14T14:29:51;4.67;;;3.17;;
65769;SDS011;52512;47.650;8.578;2023-05-14T14:32:17;12.40;;;3.43;;
65769;SDS011;52512;47.650;8.578;2023-05-14T14:34:42;4.37;;;3.30;;
65769;SDS011;52512;47.650;8.578;2023-05-14T14:37:08;7.97;;;3.53;;
65769;SDS011;52512;47.650;8.578;2023-05-14T14:39:34;7.83;;;4.03;;
65769;SDS011;52512;47.650;8.578;2023-05-14T14:41:59;5.90;;;3.57;;
65769;SDS011;52512;47.650;8.578;2023-05-14T14:44:25;3.43;;;2.97;;
65769;SDS011;52512;47.650;8.578;2023-05-14T14:46:50;3.80;;;3.07;;
65769;SDS011;52512;47.650;8.578;2023-05-14T14:49:16;7.23;;;2.90;;
65769;SDS011;52512;47.650;8.578;2023-05-14T14:51:42;2.90;;;2.63;;
65769;SDS011;52512;47.650;8.578;2023-05-14T14:54:07;4.03;;;2.90;;
65769;SDS011;52512;47.650;8.578;2023-05-14T14:56:33;2.87;;;2.67;;
65769;SDS011;52512;47.650;8.578;2023-05-14T14:58:59;3.17;;;2.87;;
65769;SDS011;52512;47.650;8.578;2023-05-14T15:01:25;5.32;;;3.47;;
65769;SDS011;52512;47.650;8.578;2023-05-14T15:03:51;4.07;;;2.83;;
65769;SDS011;52512;47.650;8.578;2023-05-14T15:06:17;3.83;;;3.27;;
65769;SDS011;52512;47.650;8.578;2023-05-14T15:08:42;8.17;;;3.37;;
65769;SDS011;52512;47.650;8.578;2023-05-14T15:11:08;6.17;;;3.40;;
65769;SDS011;52512;47.650;8.578;2023-05-14T15:13:34;9.30;;;2.97;;
65769;SDS011;52512;47.650;8.578;2023-05-14T15:15:59;5.23;;;3.33;;
65769;SDS011;52512;47.650;8.578;2023-05-14T15:18:25;5.90;;;3.03;;
65769;SDS011;52512;47.650;8.578;2023-05-14T15:20:50;3.57;;;3.03;;
65769;SDS011;52512;47.650;8.578;2023-05-14T15:23:17;10.00;;;3.63;;
65769;SDS011;52512;47.650;8.578;2023-05-14T15:25:43;5.15;;;2.75;;
65769;SDS011;52512;47.650;8.578;2023-05-14T15:28:09;3.97;;;2.60;;
65769;SDS011;52512;47.650;8.578;2023-05-14T15:30:34;4.93;;;2.27;;
65769;SDS011;52512;47.650;8.578;2023-05-14T15:33:01;4.00;;;2.60;;
65769;SDS011;52512;47.650;8.578;2023-05-14T15:35:26;2.47;;;2.28;;
65769;SDS011;52512;47.650;8.578;2023-05-14T15:37:53;3.00;;;2.80;;
65769;SDS011;52512;47.650;8.578;2023-05-14T15:40:21;4.38;;;2.35;;
65769;SDS011;52512;47.650;8.578;2023-05-14T15:42:46;4.67;;;2.80;;
65769;SDS011;52512;47.650;8.578;2023-05-14T15:45:12;7.17;;;3.60;;
65769;SDS011;52512;47.650;8.578;2023-05-14T15:47:38;9.43;;;3.50;;
65769;SDS011;52512;47.650;8.578;2023-05-14T15:50:05;4.82;;;2.65;;
65769;SDS011;52512;47.650;8.578;2023-05-14T15:52:31;4.23;;;2.80;;